Time;durP1;ratioP1;P1;durP2;ratioP2;P2;SDS_P1;SDS_P2;PMS_P1;PMS_P2;Temp;Humidity;BMP_temperature;BMP_pressure;BME280_temperature;BME280_humidity;BME280_pressure;Samples;Min_cycle;Max_cycle;Signal;HPM_P1;HPM_P2
2023/05/19 00:01:02;;;;;;;6.57;3.60;;;;;;;;;;5068647;28;20213;-63
2023/05/19 00:03:32;;;;;;;5.53;3.23;;;;;;;;;;5065005;28;20300;-64
2023/05/19 00:06:02;;;;;;;4.87;3.50;;;;;;;;;;5059008;28;20206;-62
2023/05/19 00:08:31;;;;;;;6.57;3.87;;;;;;;;;;5081221;28;20225;-64
2023/05/19 00:10:58;;;;;;;9.90;4.17;;;;;;;;;;5054405;28;20217;-63
2023/05/19 00:13:26;;;;;;;5.17;3.63;;;;;;;;;;5052973;28;20204;-63
2023/05/19 00:15:54;;;;;;;7.67;3.70;;;;;;;;;;5063546;28;20722;-62
2023/05/19 00:18:22;;;;;;;6.03;3.43;;;;;;;;;;5062929;28;20229;-64
2023/05/19 00:20:51;;;;;;;9.83;3.73;;;;;;;;;;5056670;28;20197;-63
2023/05/19 00:23:32;;;;;;;5.27;3.60;;;;;;;;;;5064782;28;20198;-62
2023/05/19 00:26:06;;;;;;;8.10;3.57;;;;;;;;;;5064248;28;20708;-63
2023/05/19 00:28:38;;;;;;;6.73;3.67;;;;;;;;;;5059055;28;20229;-64
2023/05/19 00:31:05;;;;;;;4.77;3.23;;;;;;;;;;5058452;28;20550;-63
2023/05/19 00:33:33;;;;;;;7.00;3.60;;;;;;;;;;5055808;28;20288;-64
2023/05/19 00:36:04;;;;;;;4.90;3.47;;;;;;;;;;5054061;28;20672;-62
2023/05/19 00:38:36;;;;;;;5.00;3.47;;;;;;;;;;5054484;28;20284;-64
2023/05/19 00:41:04;;;;;;;6.13;3.83;;;;;;;;;;5056170;28;20220;-63
2023/05/19 00:43:35;;;;;;;8.40;3.90;;;;;;;;;;5056369;28;20207;-63
2023/05/19 00:46:03;;;;;;;4.27;3.73;;;;;;;;;;5051834;28;20213;-61
2023/05/19 00:48:31;;;;;;;5.53;4.00;;;;;;;;;;5057070;28;20270;-63
2023/05/19 00:51:04;;;;;;;6.27;3.83;;;;;;;;;;5053250;28;20201;-63
2023/05/19 00:53:34;;;;;;;10.20;4.30;;;;;;;;;;5062775;28;20217;-64
2023/05/19 00:56:02;;;;;;;7.43;3.87;;;;;;;;;;5066723;28;20210;-65
2023/05/19 00:58:31;;;;;;;5.53;3.77;;;;;;;;;;5058186;28;20699;-64
2023/05/19 01:01:03;;;;;;;5.40;3.80;;;;;;;;;;5066905;28;20216;-64
2023/05/19 01:03:33;;;;;;;5.70;3.67;;;;;;;;;;5058880;28;20198;-64
2023/05/19 01:06:06;;;;;;;3.57;3.27;;;;;;;;;;5055914;28;20291;-64
2023/05/19 01:08:34;;;;;;;4.93;3.73;;;;;;;;;;5072034;28;20221;-64
2023/05/19 01:11:02;;;;;;;8.27;3.93;;;;;;;;;;5085088;28;20242;-64
2023/05/19 01:13:30;;;;;;;6.10;4.00;;;;;;;;;;5068026;28;20210;-63
2023/05/19 01:16:06;;;;;;;4.27;3.20;;;;;;;;;;5062892;28;20691;-63
2023/05/19 01:18:38;;;;;;;4.60;3.20;;;;;;;;;;5052153;28;20312;-64
2023/05/19 01:21:26;;;;;;;6.50;3.33;;;;;;;;;;5058262;28;20239;-64
2023/05/19 01:24:00;;;;;;;4.90;3.73;;;;;;;;;;5049706;28;21252;-64
2023/05/19 01:26:34;;;;;;;3.70;3.27;;;;;;;;;;5048737;28;20273;-63
2023/05/19 01:29:22;;;;;;;3.87;3.23;;;;;;;;;;5048154;28;20498;-63
2023/05/19 01:31:50;;;;;;;6.27;3.53;;;;;;;;;;5056558;28;20283;-63
2023/05/19 01:34:18;;;;;;;6.87;3.97;;;;;;;;;;5060878;28;20240;-64
2023/05/19 01:36:47;;;;;;;7.23;3.57;;;;;;;;;;5051209;28;20297;-64
2023/05/19 01:39:15;;;;;;;6.60;3.70;;;;;;;;;;5054295;28;20217;-63
2023/05/19 01:41:44;;;;;;;5.13;4.00;;;;;;;;;;5057682;28;20238;-64
2023/05/19 01:44:11;;;;;;;4.43;3.50;;;;;;;;;;5060232;28;21638;-63
2023/05/19 01:46:41;;;;;;;4.60;3.87;;;;;;;;;;5053176;28;20327;-63
2023/05/19 01:49:14;;;;;;;6.93;4.20;;;;;;;;;;5045195;28;20274;-64
2023/05/19 01:51:41;;;;;;;5.67;3.80;;;;;;;;;;5046727;28;20216;-63
2023/05/19 01:54:09;;;;;;;7.50;3.97;;;;;;;;;;5053841;28;20221;-63
2023/05/19 01:56:49;;;;;;;5.20;3.73;;;;;;;;;;5049297;28;20239;-63
2023/05/19 01:59:29;;;;;;;5.47;3.70;;;;;;;;;;5060540;28;20309;-63
2023/05/19 02:02:00;;;;;;;5.77;4.07;;;;;;;;;;5054023;28;20205;-64
2023/05/19 02:04:53;;;;;;;5.67;3.90;;;;;;;;;;5055911;28;20208;-62
2023/05/19 02:07:31;;;;;;;5.80;4.40;;;;;;;;;;5048016;28;20400;-62
2023/05/19 02:10:05;;;;;;;5.57;4.13;;;;;;;;;;5052454;28;20637;-63
2023/05/19 02:12:37;;;;;;;6.33;4.50;;;;;;;;;;5054788;28;20263;-63
2023/05/19 02:15:08;;;;;;;5.60;4.40;;;;;;;;;;5053567;28;20209;-64
2023/05/19 02:17:46;;;;;;;6.50;4.60;;;;;;;;;;5048305;28;20233;-63
2023/05/19 02:20:16;;;;;;;5.60;3.90;;;;;;;;;;5053956;28;20243;-63
2023/05/19 02:22:43;;;;;;;7.23;4.63;;;;;;;;;;5050721;28;20210;-63
2023/05/19 02:25:11;;;;;;;7.83;4.90;;;;;;;;;;5060095;28;20228;-62
2023/05/19 02:27:38;;;;;;;6.67;4.80;;;;;;;;;;5046746;28;20229;-62
2023/05/19 02:30:18;;;;;;;6.93;4.30;;;;;;;;;;5046532;28;20205;-62
2023/05/19 02:32:46;;;;;;;5.70;4.17;;;;;;;;;;5031676;28;20205;-62
2023/05/19 02:35:13;;;;;;;5.40;4.77;;;;;;;;;;5049687;28;20300;-62
2023/05/19 02:37:41;;;;;;;7.37;4.90;;;;;;;;;;5048543;28;20289;-64
2023/05/19 02:40:08;;;;;;;6.70;4.30;;;;;;;;;;5045706;28;20201;-64
2023/05/19 02:42:36;;;;;;;8.00;4.70;;;;;;;;;;5063421;28;20225;-64
2023/05/19 02:45:04;;;;;;;7.40;4.67;;;;;;;;;;5043807;28;20664;-63
2023/05/19 02:47:31;;;;;;;6.00;5.00;;;;;;;;;;5042532;28;20241;-62
2023/05/19 02:50:02;;;;;;;8.40;5.00;;;;;;;;;;5056818;28;20580;-62
2023/05/19 02:52:29;;;;;;;8.90;4.60;;;;;;;;;;5051831;28;20215;-62
2023/05/19 02:54:57;;;;;;;6.27;4.30;;;;;;;;;;5054871;28;20214;-63
2023/05/19 02:57:25;;;;;;;6.87;4.63;;;;;;;;;;5063312;28;20244;-62
2023/05/19 02:59:53;;;;;;;7.33;4.67;;;;;;;;;;5055633;28;20205;-63
2023/05/19 03:02:22;;;;;;;5.53;4.70;;;;;;;;;;5054559;28;20199;-65
2023/05/19 03:04:53;;;;;;;7.13;4.87;;;;;;;;;;5058380;28;20341;-63
2023/05/19 03:07:23;;;;;;;5.07;4.10;;;;;;;;;;5056811;28;20314;-64
2023/05/19 03:09:51;;;;;;;6.17;4.20;;;;;;;;;;5074095;28;20200;-61
2023/05/19 03:12:19;;;;;;;4.23;3.73;;;;;;;;;;5064476;28;20205;-62
2023/05/19 03:14:46;;;;;;;7.20;4.67;;;;;;;;;;5068367;28;20292;-64
2023/05/19 03:17:14;;;;;;;6.27;4.57;;;;;;;;;;5060776;28;20241;-64
2023/05/19 03:19:42;;;;;;;6.73;4.33;;;;;;;;;;5066001;28;20229;-63
2023/05/19 03:22:09;;;;;;;6.73;4.67;;;;;;;;;;5061087;28;20648;-63
2023/05/19 03:24:37;;;;;;;7.60;4.80;;;;;;;;;;5071880;28;20266;-63
2023/05/19 03:27:04;;;;;;;8.70;5.23;;;;;;;;;;5073154;28;20202;-64
2023/05/19 03:29:32;;;;;;;7.67;4.97;;;;;;;;;;5061796;28;20487;-62
2023/05/19 03:32:00;;;;;;;7.80;4.97;;;;;;;;;;5056191;28;20202;-62
2023/05/19 03:34:31;;;;;;;7.67;5.13;;;;;;;;;;5063572;28;20276;-65
2023/05/19 03:37:12;;;;;;;6.80;5.00;;;;;;;;;;5061864;28;20567;-61
2023/05/19 03:39:40;;;;;;;9.83;5.00;;;;;;;;;;5062418;28;20580;-64
2023/05/19 03:42:07;;;;;;;5.83;4.70;;;;;;;;;;5070212;28;20213;-64
2023/05/19 03:44:35;;;;;;;7.30;4.80;;;;;;;;;;5075500;28;20334;-63
2023/05/19 03:47:02;;;;;;;7.30;5.30;;;;;;;;;;5057197;28;20267;-63
2023/05/19 03:49:29;;;;;;;7.40;5.00;;;;;;;;;;5066948;28;20198;-62
2023/05/19 03:51:57;;;;;;;6.50;5.53;;;;;;;;;;5077145;28;20202;-63
2023/05/19 03:54:25;;;;;;;9.10;5.10;;;;;;;;;;5066823;28;20296;-64
2023/05/19 03:56:52;;;;;;;8.07;4.87;;;;;;;;;;5078829;28;20221;-63
2023/05/19 03:59:20;;;;;;;7.97;5.13;;;;;;;;;;5079525;28;20829;-64
2023/05/19 04:01:47;;;;;;;8.77;5.43;;;;;;;;;;5075821;28;20204;-63
2023/05/19 04:04:15;;;;;;;10.10;5.80;;;;;;;;;;5057214;28;20487;-64
2023/05/19 04:06:57;;;;;;;8.33;5.03;;;;;;;;;;5071492;28;20193;-63
2023/05/19 04:09:27;;;;;;;7.93;4.87;;;;;;;;;;5075768;28;20238;-64
2023/05/19 04:11:57;;;;;;;8.33;5.63;;;;;;;;;;5064681;28;20687;-64
2023/05/19 04:14:24;;;;;;;10.70;5.13;;;;;;;;;;5077560;28;20209;-63
2023/05/19 04:16:53;;;;;;;9.07;5.43;;;;;;;;;;5065024;28;20221;-63
2023/05/19 04:19:20;;;;;;;9.73;5.73;;;;;;;;;;5061518;28;20315;-64
2023/05/19 04:21:48;;;;;;;10.90;5.70;;;;;;;;;;5069464;28;20201;-65
2023/05/19 04:24:15;;;;;;;11.10;5.20;;;;;;;;;;5100382;28;20205;-62
2023/05/19 04:26:45;;;;;;;10.10;5.50;;;;;;;;;;5068480;28;20222;-63
2023/05/19 04:29:16;;;;;;;10.37;5.27;;;;;;;;;;5078589;28;20229;-62
2023/05/19 04:31:44;;;;;;;8.40;5.23;;;;;;;;;;5074296;28;20202;-63
2023/05/19 04:34:12;;;;;;;8.73;5.63;;;;;;;;;;5079453;28;20222;-63
2023/05/19 04:36:40;;;;;;;13.60;5.80;;;;;;;;;;5083536;28;20202;-64
2023/05/19 04:39:10;;;;;;;16.93;5.90;;;;;;;;;;5068138;28;20239;-63
2023/05/19 04:41:39;;;;;;;9.93;5.33;;;;;;;;;;5060881;28;20201;-63
2023/05/19 04:44:16;;;;;;;5.83;5.23;;;;;;;;;;5056704;28;20270;-63
2023/05/19 04:46:44;;;;;;;9.67;5.57;;;;;;;;;;5059728;28;23347;-64
2023/05/19 04:49:12;;;;;;;9.97;4.87;;;;;;;;;;5061803;28;20233;-63
2023/05/19 04:51:41;;;;;;;10.17;5.33;;;;;;;;;;5065274;28;20251;-64
2023/05/19 04:54:08;;;;;;;8.67;5.00;;;;;;;;;;5074742;28;20218;-64
2023/05/19 04:56:36;;;;;;;10.77;5.50;;;;;;;;;;5063477;28;20209;-64
2023/05/19 04:59:03;;;;;;;7.90;5.03;;;;;;;;;;5068183;28;20221;-64
2023/05/19 05:01:32;;;;;;;10.20;5.53;;;;;;;;;;5069681;28;20889;-63
2023/05/19 05:04:01;;;;;;;9.80;4.97;;;;;;;;;;5062952;28;20230;-64
2023/05/19 05:06:30;;;;;;;8.50;4.53;;;;;;;;;;5059178;28;20368;-64
2023/05/19 05:08:58;;;;;;;10.07;5.70;;;;;;;;;;5052953;28;20251;-62
2023/05/19 05:11:26;;;;;;;10.97;5.60;;;;;;;;;;5061091;28;20204;-64
2023/05/19 05:13:56;;;;;;;9.27;4.67;;;;;;;;;;5062031;28;20208;-64
2023/05/19 05:16:24;;;;;;;8.73;4.93;;;;;;;;;;5066178;28;20224;-63
2023/05/19 05:18:52;;;;;;;9.97;4.67;;;;;;;;;;5056354;28;20983;-64
2023/05/19 05:21:20;;;;;;;9.77;4.60;;;;;;;;;;5068331;28;20284;-62
2023/05/19 05:23:47;;;;;;;8.27;4.67;;;;;;;;;;5088293;28;20568;-63
2023/05/19 05:26:18;;;;;;;9.73;5.50;;;;;;;;;;5063886;28;20205;-62
2023/05/19 05:28:46;;;;;;;13.73;7.60;;;;;;;;;;5070401;28;20222;-64
2023/05/19 05:31:13;;;;;;;10.47;5.70;;;;;;;;;;5079495;28;20623;-63
2023/05/19 05:33:41;;;;;;;12.63;6.00;;;;;;;;;;5079727;28;20258;-64
2023/05/19 05:36:09;;;;;;;11.33;6.37;;;;;;;;;;5074832;28;20197;-62
2023/05/19 05:38:36;;;;;;;12.73;6.20;;;;;;;;;;5078994;28;20217;-63
2023/05/19 05:41:04;;;;;;;13.27;6.50;;;;;;;;;;5093753;28;20207;-62
2023/05/19 05:43:33;;;;;;;8.57;5.43;;;;;;;;;;5078030;28;20197;-63
2023/05/19 05:46:06;;;;;;;10.90;6.03;;;;;;;;;;5069247;28;20209;-63
2023/05/19 05:48:48;;;;;;;13.23;6.23;;;;;;;;;;5073887;28;20229;-63
2023/05/19 05:51:15;;;;;;;14.70;6.37;;;;;;;;;;5065400;28;20210;-65
2023/05/19 05:53:44;;;;;;;15.67;7.20;;;;;;;;;;5063681;28;20214;-63
2023/05/19 05:56:12;;;;;;;19.43;7.50;;;;;;;;;;5071630;28;20820;-64
2023/05/19 05:58:41;;;;;;;19.00;7.10;;;;;;;;;;5061229;28;20232;-64
2023/05/19 06:01:12;;;;;;;13.93;6.70;;;;;;;;;;5058113;28;20211;-65
2023/05/19 06:03:41;;;;;;;11.10;5.97;;;;;;;;;;5056217;28;20206;-64
2023/05/19 06:06:09;;;;;;;11.07;5.30;;;;;;;;;;5051373;28;20209;-62
2023/05/19 06:08:37;;;;;;;8.77;5.30;;;;;;;;;;5057063;28;20229;-62
2023/05/19 06:11:08;;;;;;;8.93;5.00;;;;;;;;;;5038542;28;20449;-61
2023/05/19 06:13:37;;;;;;;6.87;4.50;;;;;;;;;;5043858;28;20872;-61
2023/05/19 06:16:10;;;;;;;7.80;4.93;;;;;;;;;;5045107;28;20274;-64
2023/05/19 06:18:38;;;;;;;8.33;5.30;;;;;;;;;;5045154;28;20233;-62
2023/05/19 06:21:05;;;;;;;6.93;4.90;;;;;;;;;;5046801;28;20219;-65
2023/05/19 06:23:35;;;;;;;11.13;5.00;;;;;;;;;;5046132;28;20754;-65
2023/05/19 06:26:03;;;;;;;7.07;5.43;;;;;;;;;;5051619;28;20315;-62
2023/05/19 06:28:35;;;;;;;10.43;6.30;;;;;;;;;;5043565;28;20261;-62
2023/05/19 06:31:03;;;;;;;13.20;5.07;;;;;;;;;;5034291;28;20289;-62
2023/05/19 06:33:31;;;;;;;10.33;5.13;;;;;;;;;;5056221;28;20287;-62
2023/05/19 06:36:03;;;;;;;8.93;4.70;;;;;;;;;;5046473;28;20201;-62
2023/05/19 06:38:31;;;;;;;9.27;4.63;;;;;;;;;;5037813;28;20225;-64
2023/05/19 06:40:59;;;;;;;8.73;4.37;;;;;;;;;;5041198;28;20213;-66
2023/05/19 06:43:30;;;;;;;8.13;4.13;;;;;;;;;;5047162;28;20291;-62
2023/05/19 06:46:04;;;;;;;5.70;4.57;;;;;;;;;;5032860;28;20283;-62
2023/05/19 06:48:32;;;;;;;8.10;4.50;;;;;;;;;;5040484;28;20225;-63
2023/05/19 06:51:00;;;;;;;7.73;4.60;;;;;;;;;;5038474;28;20224;-64
2023/05/19 06:53:27;;;;;;;7.83;4.60;;;;;;;;;;5032146;28;20221;-63
2023/05/19 06:55:55;;;;;;;6.40;4.07;;;;;;;;;;5046118;28;20201;-63
2023/05/19 06:58:26;;;;;;;8.33;4.03;;;;;;;;;;5052628;28;20229;-62
2023/05/19 07:00:54;;;;;;;6.93;4.63;;;;;;;;;;5043189;28;20213;-63
2023/05/19 07:03:30;;;;;;;11.90;4.40;;;;;;;;;;5038751;28;20205;-64
2023/05/19 07:05:57;;;;;;;6.77;3.97;;;;;;;;;;5066623;28;20628;-62
2023/05/19 07:08:26;;;;;;;6.20;4.17;;;;;;;;;;5064851;28;20840;-61
2023/05/19 07:10:54;;;;;;;7.80;4.50;;;;;;;;;;5052819;28;20243;-62
2023/05/19 07:13:22;;;;;;;7.33;4.73;;;;;;;;;;5071389;28;20678;-62
2023/05/19 07:15:56;;;;;;;6.57;4.50;;;;;;;;;;5064539;28;20237;-62
2023/05/19 07:18:24;;;;;;;7.27;5.10;;;;;;;;;;5051144;28;20240;-62
2023/05/19 07:20:52;;;;;;;8.43;5.63;;;;;;;;;;5069895;28;20665;-63
2023/05/19 07:23:20;;;;;;;7.47;4.90;;;;;;;;;;5067120;28;20193;-64
2023/05/19 07:25:48;;;;;;;8.07;4.67;;;;;;;;;;5060109;28;20212;-63
2023/05/19 07:28:15;;;;;;;6.40;4.53;;;;;;;;;;5056473;28;20231;-63
2023/05/19 07:30:43;;;;;;;6.30;4.83;;;;;;;;;;5070071;28;20697;-63
2023/05/19 07:33:10;;;;;;;9.13;5.03;;;;;;;;;;5059592;28;20653;-64
2023/05/19 07:35:38;;;;;;;8.00;4.90;;;;;;;;;;5062876;28;20197;-63
2023/05/19 07:38:06;;;;;;;10.90;5.30;;;;;;;;;;5086286;28;20229;-62
2023/05/19 07:40:33;;;;;;;9.27;4.97;;;;;;;;;;5068269;28;20231;-63
2023/05/19 07:43:01;;;;;;;7.30;4.60;;;;;;;;;;5055678;28;20292;-62
2023/05/19 07:45:28;;;;;;;6.93;4.97;;;;;;;;;;5072477;28;20197;-63
2023/05/19 07:47:56;;;;;;;6.20;4.37;;;;;;;;;;5048262;28;20329;-63
2023/05/19 07:50:24;;;;;;;7.87;4.33;;;;;;;;;;5076987;28;21152;-62
2023/05/19 07:52:51;;;;;;;6.67;4.70;;;;;;;;;;5067789;28;20238;-63
2023/05/19 07:55:21;;;;;;;5.80;3.90;;;;;;;;;;5068182;28;20273;-62
2023/05/19 07:57:49;;;;;;;8.37;4.60;;;;;;;;;;5075518;28;20229;-62
2023/05/19 08:00:17;;;;;;;8.03;4.90;;;;;;;;;;5058380;28;20225;-62
2023/05/19 08:02:45;;;;;;;6.20;4.43;;;;;;;;;;5058995;28;20211;-63
2023/05/19 08:05:13;;;;;;;7.50;5.20;;;;;;;;;;5067340;28;20240;-64
2023/05/19 08:07:41;;;;;;;5.70;4.20;;;;;;;;;;5059791;28;20226;-62
2023/05/19 08:10:08;;;;;;;8.07;4.40;;;;;;;;;;5056660;28;20480;-63
2023/05/19 08:12:36;;;;;;;4.63;4.23;;;;;;;;;;5064640;28;20201;-62
2023/05/19 08:15:03;;;;;;;6.00;4.30;;;;;;;;;;5068749;28;20221;-62
2023/05/19 08:17:31;;;;;;;5.43;4.33;;;;;;;;;;5058180;28;20240;-64
2023/05/19 08:19:59;;;;;;;6.20;4.20;;;;;;;;;;5057751;28;20222;-62
2023/05/19 08:22:26;;;;;;;5.87;4.27;;;;;;;;;;5056699;28;20213;-62
2023/05/19 08:24:54;;;;;;;5.77;4.40;;;;;;;;;;5063690;28;20209;-62
2023/05/19 08:27:21;;;;;;;4.90;3.93;;;;;;;;;;5063629;28;20209;-63
2023/05/19 08:29:50;;;;;;;7.57;4.50;;;;;;;;;;5064920;28;20220;-63
2023/05/19 08:32:17;;;;;;;4.67;3.83;;;;;;;;;;5064236;28;20225;-63
2023/05/19 08:34:45;;;;;;;7.07;4.53;;;;;;;;;;5058318;28;20686;-63
2023/05/19 08:37:12;;;;;;;6.67;4.90;;;;;;;;;;5059955;28;20662;-62
2023/05/19 08:39:40;;;;;;;6.20;4.00;;;;;;;;;;5049262;28;20225;-62
2023/05/19 08:42:08;;;;;;;9.07;4.00;;;;;;;;;;5062164;28;20203;-64
2023/05/19 08:44:38;;;;;;;7.17;4.60;;;;;;;;;;5064272;28;20209;-63
2023/05/19 08:47:12;;;;;;;4.37;3.97;;;;;;;;;;5079414;28;20206;-63
2023/05/19 08:49:43;;;;;;;6.77;4.67;;;;;;;;;;5043088;28;20282;-62
2023/05/19 08:52:30;;;;;;;5.30;4.10;;;;;;;;;;5065078;28;20292;-64
2023/05/19 08:55:01;;;;;;;5.63;4.33;;;;;;;;;;5077431;28;20339;-62
2023/05/19 08:57:31;;;;;;;6.73;4.37;;;;;;;;;;5063122;28;20230;-62
2023/05/19 08:59:59;;;;;;;9.90;4.10;;;;;;;;;;5068223;28;20935;-63
2023/05/19 09:02:27;;;;;;;5.70;3.50;;;;;;;;;;5050751;28;20206;-62
2023/05/19 09:04:56;;;;;;;7.87;4.13;;;;;;;;;;5067985;28;20210;-61
2023/05/19 09:07:28;;;;;;;5.37;3.97;;;;;;;;;;5058770;28;20294;-63
2023/05/19 09:10:14;;;;;;;5.83;4.47;;;;;;;;;;5057881;28;20209;-64
2023/05/19 09:12:46;;;;;;;6.80;4.50;;;;;;;;;;5055568;28;20247;-62
2023/05/19 09:15:17;;;;;;;6.23;4.23;;;;;;;;;;5054224;28;20454;-62
2023/05/19 09:17:46;;;;;;;6.77;4.70;;;;;;;;;;5054450;28;20279;-64
2023/05/19 09:20:16;;;;;;;6.73;4.70;;;;;;;;;;5057056;28;20236;-63
2023/05/19 09:22:46;;;;;;;5.57;4.37;;;;;;;;;;5053865;28;20228;-63
2023/05/19 09:25:23;;;;;;;6.77;5.60;;;;;;;;;;5054249;28;20206;-62
2023/05/19 09:27:50;;;;;;;5.20;4.57;;;;;;;;;;5051509;28;20227;-63
2023/05/19 09:30:18;;;;;;;7.57;5.10;;;;;;;;;;5067929;28;20235;-63
2023/05/19 09:32:46;;;;;;;8.90;6.33;;;;;;;;;;5080277;28;20210;-63
2023/05/19 09:35:19;;;;;;;10.87;7.60;;;;;;;;;;5050530;28;20857;-63
2023/05/19 09:37:47;;;;;;;10.10;5.63;;;;;;;;;;5067941;28;20308;-61
2023/05/19 09:40:14;;;;;;;8.00;5.60;;;;;;;;;;5073158;28;20224;-63
2023/05/19 09:42:45;;;;;;;7.88;5.07;;;;;;;;;;5058954;28;20259;-63
2023/05/19 09:45:12;;;;;;;6.50;4.93;;;;;;;;;;5062397;28;20224;-63
2023/05/19 09:47:41;;;;;;;7.73;6.00;;;;;;;;;;5060415;28;20325;-63
2023/05/19 09:50:09;;;;;;;6.80;4.40;;;;;;;;;;5055014;28;20229;-62
2023/05/19 09:52:38;;;;;;;5.47;3.90;;;;;;;;;;5059449;28;20213;-61
2023/05/19 09:55:06;;;;;;;6.43;4.37;;;;;;;;;;5053827;28;20304;-62
2023/05/19 09:57:36;;;;;;;4.68;3.97;;;;;;;;;;5052617;28;20275;-64
2023/05/19 10:00:10;;;;;;;6.97;4.40;;;;;;;;;;5062289;28;20225;-61
2023/05/19 10:02:41;;;;;;;8.33;4.77;;;;;;;;;;5061552;28;20222;-62
2023/05/19 10:05:10;;;;;;;5.07;4.23;;;;;;;;;;5056365;28;20296;-62
2023/05/19 10:07:39;;;;;;;6.20;3.90;;;;;;;;;;5066529;28;21311;-63
2023/05/19 10:10:08;;;;;;;9.85;6.07;;;;;;;;;;5060082;28;20206;-62
2023/05/19 10:12:38;;;;;;;5.77;4.43;;;;;;;;;;5060053;28;20575;-63
2023/05/19 10:15:09;;;;;;;4.55;3.92;;;;;;;;;;5059520;28;20214;-62
2023/05/19 10:17:41;;;;;;;4.45;3.95;;;;;;;;;;5063057;28;20363;-63
2023/05/19 10:20:13;;;;;;;5.00;3.53;;;;;;;;;;5071793;28;20299;-62
2023/05/19 10:22:41;;;;;;;7.37;4.23;;;;;;;;;;5058411;28;20193;-62
2023/05/19 10:25:09;;;;;;;5.25;4.18;;;;;;;;;;5051933;28;20302;-63
2023/05/19 10:27:38;;;;;;;5.90;3.83;;;;;;;;;;5060356;28;20227;-62
2023/05/19 10:30:08;;;;;;;6.07;4.20;;;;;;;;;;5058760;28;20671;-63
2023/05/19 10:32:40;;;;;;;4.35;3.95;;;;;;;;;;5054604;28;20200;-63
2023/05/19 10:35:08;;;;;;;9.88;6.05;;;;;;;;;;5060303;28;20225;-63
2023/05/19 10:37:38;;;;;;;9.00;5.67;;;;;;;;;;5053075;28;20295;-63
2023/05/19 10:40:08;;;;;;;8.27;4.77;;;;;;;;;;5060861;28;20221;-64
2023/05/19 10:42:40;;;;;;;7.73;4.83;;;;;;;;;;5078713;28;20193;-64
2023/05/19 10:45:22;;;;;;;8.00;5.00;;;;;;;;;;5072325;28;20197;-63
2023/05/19 10:47:54;;;;;;;6.73;4.50;;;;;;;;;;5049690;28;20213;-63
2023/05/19 10:50:22;;;;;;;5.70;4.80;;;;;;;;;;5073661;28;20212;-63
2023/05/19 10:52:55;;;;;;;5.77;4.10;;;;;;;;;;5050417;28;20270;-63
2023/05/19 10:55:41;;;;;;;8.03;4.60;;;;;;;;;;5051884;28;20281;-62
2023/05/19 10:58:10;;;;;;;5.93;4.17;;;;;;;;;;5064847;28;20224;-62
2023/05/19 11:00:39;;;;;;;6.07;4.60;;;;;;;;;;5068926;28;20266;-63
2023/05/19 11:03:17;;;;;;;5.87;4.07;;;;;;;;;;5062326;28;20198;-62
2023/05/19 11:05:45;;;;;;;6.40;4.13;;;;;;;;;;5067614;28;20217;-62
2023/05/19 11:08:13;;;;;;;6.70;4.57;;;;;;;;;;5055570;28;20267;-63
2023/05/19 11:10:44;;;;;;;6.40;4.50;;;;;;;;;;5057543;28;20715;-63
2023/05/19 11:13:22;;;;;;;6.20;4.03;;;;;;;;;;5062100;28;20709;-63
2023/05/19 11:15:50;;;;;;;6.33;5.37;;;;;;;;;;5051587;28;20633;-63
2023/05/19 11:18:19;;;;;;;9.17;6.57;;;;;;;;;;5077545;28;20239;-63
2023/05/19 11:21:01;;;;;;;6.10;5.10;;;;;;;;;;5059501;28;20229;-63
2023/05/19 11:23:33;;;;;;;8.30;5.03;;;;;;;;;;5055605;28;20256;-63
2023/05/19 11:26:02;;;;;;;5.87;4.53;;;;;;;;;;5064834;28;20243;-63
2023/05/19 11:28:30;;;;;;;6.87;4.63;;;;;;;;;;5056485;28;20221;-63
2023/05/19 11:31:11;;;;;;;5.60;4.50;;;;;;;;;;5059098;28;20208;-63
2023/05/19 11:33:52;;;;;;;5.63;4.27;;;;;;;;;;5061717;28;20213;-64
2023/05/19 11:36:22;;;;;;;7.77;4.53;;;;;;;;;;5058133;28;20285;-64
2023/05/19 11:38:50;;;;;;;5.53;4.40;;;;;;;;;;5059822;28;20306;-63
2023/05/19 11:41:20;;;;;;;5.70;4.10;;;;;;;;;;5059511;28;20249;-63
2023/05/19 11:43:48;;;;;;;4.80;4.37;;;;;;;;;;5054761;28;20206;-62
2023/05/19 11:46:18;;;;;;;5.60;4.83;;;;;;;;;;5072282;28;20193;-62
2023/05/19 11:48:47;;;;;;;7.10;5.10;;;;;;;;;;5060918;28;20272;-63
2023/05/19 11:51:15;;;;;;;6.87;4.70;;;;;;;;;;5075918;28;20635;-64
2023/05/19 11:53:44;;;;;;;5.67;5.00;;;;;;;;;;5061059;28;20202;-63
2023/05/19 11:56:12;;;;;;;5.57;4.90;;;;;;;;;;5063809;28;20232;-64
2023/05/19 11:58:39;;;;;;;6.90;4.87;;;;;;;;;;5073186;28;20254;-62
2023/05/19 12:01:09;;;;;;;5.50;4.70;;;;;;;;;;5064810;28;20225;-63
2023/05/19 12:03:36;;;;;;;9.27;4.93;;;;;;;;;;5056511;28;20206;-64
2023/05/19 12:06:04;;;;;;;6.70;4.23;;;;;;;;;;5066697;28;20329;-62
2023/05/19 12:08:32;;;;;;;4.83;4.30;;;;;;;;;;5057735;28;20590;-62
2023/05/19 12:10:59;;;;;;;6.47;4.87;;;;;;;;;;5051855;28;20300;-63
2023/05/19 12:13:27;;;;;;;6.27;4.60;;;;;;;;;;5070671;28;20264;-63
2023/05/19 12:15:59;;;;;;;5.70;4.60;;;;;;;;;;5069748;28;20197;-62
2023/05/19 12:18:30;;;;;;;7.03;4.57;;;;;;;;;;5062714;28;20264;-67
2023/05/19 12:21:02;;;;;;;5.07;4.60;;;;;;;;;;5064975;28;20742;-63
2023/05/19 12:23:29;;;;;;;4.60;4.20;;;;;;;;;;5061147;28;20568;-63
2023/05/19 12:25:58;;;;;;;6.00;4.90;;;;;;;;;;5062790;28;20202;-63
2023/05/19 12:28:26;;;;;;;9.07;5.00;;;;;;;;;;5053559;28;20221;-64
2023/05/19 12:30:53;;;;;;;7.00;5.13;;;;;;;;;;5059318;28;20324;-63
2023/05/19 12:33:21;;;;;;;6.73;4.50;;;;;;;;;;5058989;28;20201;-63
2023/05/19 12:35:51;;;;;;;6.43;4.33;;;;;;;;;;5064055;28;20682;-63
2023/05/19 12:38:19;;;;;;;9.40;4.57;;;;;;;;;;5064472;28;20222;-63
2023/05/19 12:40:50;;;;;;;5.43;4.40;;;;;;;;;;5069967;28;20225;-63
2023/05/19 12:43:18;;;;;;;4.90;4.50;;;;;;;;;;5056668;28;20201;-63
2023/05/19 12:45:46;;;;;;;4.40;4.00;;;;;;;;;;5051289;28;20657;-63
2023/05/19 12:48:15;;;;;;;6.23;4.87;;;;;;;;;;5055646;28;20552;-63
2023/05/19 12:50:43;;;;;;;4.63;4.13;;;;;;;;;;5053205;28;20312;-64
2023/05/19 12:53:12;;;;;;;5.23;4.23;;;;;;;;;;5054166;28;20743;-62
2023/05/19 12:55:43;;;;;;;5.73;4.10;;;;;;;;;;5065346;28;20210;-63
2023/05/19 12:58:11;;;;;;;5.27;4.67;;;;;;;;;;5053087;28;20230;-62
2023/05/19 13:00:45;;;;;;;7.53;4.90;;;;;;;;;;5056714;28;20221;-63
2023/05/19 13:03:17;;;;;;;5.33;4.37;;;;;;;;;;5059415;28;20225;-62
2023/05/19 13:05:49;;;;;;;8.93;4.80;;;;;;;;;;5059136;28;20468;-63
2023/05/19 13:08:20;;;;;;;5.27;4.77;;;;;;;;;;5056870;28;20220;-62
2023/05/19 13:10:48;;;;;;;5.60;4.70;;;;;;;;;;5062624;28;20210;-63
2023/05/19 13:13:18;;;;;;;6.70;6.00;;;;;;;;;;5058691;28;20659;-63
2023/05/19 13:15:49;;;;;;;6.47;4.87;;;;;;;;;;5070355;28;20214;-63
2023/05/19 13:18:17;;;;;;;6.78;5.53;;;;;;;;;;5068964;28;20260;-63
2023/05/19 13:20:45;;;;;;;6.38;4.68;;;;;;;;;;5043057;28;20784;-63
2023/05/19 13:23:13;;;;;;;6.13;4.85;;;;;;;;;;5053636;28;20208;-63
2023/05/19 13:25:41;;;;;;;7.27;4.40;;;;;;;;;;5053710;28;20587;-63
2023/05/19 13:28:09;;;;;;;6.30;4.43;;;;;;;;;;5063596;28;20213;-65
2023/05/19 13:30:38;;;;;;;6.00;4.35;;;;;;;;;;5057435;28;20713;-64
2023/05/19 13:33:05;;;;;;;5.77;4.73;;;;;;;;;;5056449;28;20295;-62
2023/05/19 13:35:37;;;;;;;5.40;4.53;;;;;;;;;;5061111;28;20598;-64
2023/05/19 13:38:08;;;;;;;5.32;4.82;;;;;;;;;;5056147;28;20252;-63
2023/05/19 13:40:38;;;;;;;5.47;4.90;;;;;;;;;;5046232;28;20334;-62
2023/05/19 13:43:07;;;;;;;5.73;4.90;;;;;;;;;;5059517;28;20212;-62
2023/05/19 13:45:35;;;;;;;5.45;4.88;;;;;;;;;;5054705;28;20693;-62
2023/05/19 13:48:02;;;;;;;8.48;4.95;;;;;;;;;;5061867;28;20275;-63
2023/05/19 13:50:30;;;;;;;7.05;5.30;;;;;;;;;;5043343;28;20206;-63
2023/05/19 13:52:57;;;;;;;7.50;5.60;;;;;;;;;;5070264;28;20211;-64
2023/05/19 13:55:26;;;;;;;7.13;5.83;;;;;;;;;;5054144;28;20206;-62
2023/05/19 13:57:53;;;;;;;6.07;5.07;;;;;;;;;;5060255;28;20455;-62
2023/05/19 14:00:21;;;;;;;8.95;6.00;;;;;;;;;;5054671;28;20225;-62
2023/05/19 14:02:48;;;;;;;7.28;5.65;;;;;;;;;;5059176;28;20267;-64
2023/05/19 14:05:20;;;;;;;7.20;5.90;;;;;;;;;;5054288;28;20217;-62
2023/05/19 14:07:48;;;;;;;6.93;6.00;;;;;;;;;;5059666;28;20545;-62
2023/05/19 14:10:23;;;;;;;8.80;6.77;;;;;;;;;;5062490;28;20247;-64
2023/05/19 14:12:52;;;;;;;6.80;6.17;;;;;;;;;;5066957;28;20200;-62
2023/05/19 14:15:40;;;;;;;7.63;6.30;;;;;;;;;;5066782;28;20299;-63
2023/05/19 14:18:07;;;;;;;8.23;7.00;;;;;;;;;;5054940;28;20252;-64
2023/05/19 14:20:34;;;;;;;8.13;6.50;;;;;;;;;;5065443;28;20224;-64
2023/05/19 14:23:02;;;;;;;8.43;6.83;;;;;;;;;;5055582;28;20239;-63
2023/05/19 14:25:29;;;;;;;11.03;7.77;;;;;;;;;;5057388;28;20557;-63
2023/05/19 14:27:57;;;;;;;9.00;6.97;;;;;;;;;;5056889;28;20628;-63
2023/05/19 14:30:24;;;;;;;7.53;6.83;;;;;;;;;;5052302;28;20210;-63
2023/05/19 14:32:52;;;;;;;8.00;6.90;;;;;;;;;;5052426;28;20697;-63
2023/05/19 14:35:20;;;;;;;8.00;7.20;;;;;;;;;;5059450;28;20719;-61
2023/05/19 14:37:47;;;;;;;6.97;6.27;;;;;;;;;;5094406;28;20288;-62
2023/05/19 14:40:15;;;;;;;9.70;6.80;;;;;;;;;;5071539;28;20587;-63
2023/05/19 14:42:44;;;;;;;7.57;6.87;;;;;;;;;;5063894;28;20264;-63
2023/05/19 14:45:11;;;;;;;10.63;6.90;;;;;;;;;;5051358;28;20611;-63
2023/05/19 14:47:41;;;;;;;7.67;6.73;;;;;;;;;;5053849;28;20229;-63
2023/05/19 14:50:09;;;;;;;9.37;6.63;;;;;;;;;;5053745;28;20282;-62
2023/05/19 14:52:36;;;;;;;8.87;6.47;;;;;;;;;;5051418;28;21762;-63
2023/05/19 14:55:04;;;;;;;9.10;7.00;;;;;;;;;;5058801;28;20273;-63